Atlantic, Pennsylvania
Current Conditions -  °F | °C
As of 8:53 PM on Monday 24 Nov 2014 (Local Time) from KGKJ Reporting Station
Scattered Clouds Scattered Clouds  
Wind Chill: 34°   Ceiling: Unl
Heat Index: 42°   Visibility: 10mi
Dew Point: 27°   Wind: 16mph
Humidity: 55%   Direction: 230°SW
Pressure: 29.7"   Gusts: 32mph
Location:  41.5°N, 80.33°W
Report Text: KGKJ 250153Z AUTO 23014G28KT 10SM SCT037 06/M03 A2970 RMK AO2 PK WND 24033/0136 SLP059 T00561028 TSNO $
Loading
Personal Weather Stations






























Interactive Weather Map New forecast layout! Learn more

10-Day Weather Forecast

Advertisements
Track Severe Weather on mobile